sensor_id;sensor_type;location;lat;lon;timestamp;pressure;altitude;pressure_sealevel;temperature;humidity
64292;BME280;50628;51.008;13.658;2024-03-22T00:01:13;100319.81;;;8.75;100.00
64292;BME280;50628;51.008;13.658;2024-03-22T00:06:16;100324.19;;;8.75;100.00
64292;BME280;50628;51.008;13.658;2024-03-22T00:11:18;100316.41;;;8.75;100.00
64292;BME280;50628;51.008;13.658;2024-03-22T00:16:20;100319.16;;;8.72;100.00
64292;BME280;50628;51.008;13.658;2024-03-22T00:21:23;100314.38;;;8.65;100.00
64292;BME280;50628;51.008;13.658;2024-03-22T00:26:25;100316.56;;;8.72;100.00
64292;BME280;50628;51.008;13.658;2024-03-22T00:31:27;100313.97;;;8.72;100.00
64292;BME280;50628;51.008;13.658;2024-03-22T00:36:30;100303.50;;;8.73;100.00
64292;BME280;50628;51.008;13.658;2024-03-22T00:41:32;100297.75;;;8.82;100.00
64292;BME280;50628;51.008;13.658;2024-03-22T00:46:34;100290.13;;;8.79;100.00
64292;BME280;50628;51.008;13.658;2024-03-22T00:51:37;100282.84;;;8.72;100.00
64292;BME280;50628;51.008;13.658;2024-03-22T00:56:39;100274.34;;;8.70;100.00
64292;BME280;50628;51.008;13.658;2024-03-22T01:01:41;100271.91;;;8.66;100.00
64292;BME280;50628;51.008;13.658;2024-03-22T01:06:44;100282.25;;;8.81;100.00
64292;BME280;50628;51.008;13.658;2024-03-22T01:11:46;100267.50;;;8.81;100.00
64292;BME280;50628;51.008;13.658;2024-03-22T01:16:48;100266.97;;;8.76;100.00
64292;BME280;50628;51.008;13.658;2024-03-22T01:21:51;100254.00;;;8.76;100.00
64292;BME280;50628;51.008;13.658;2024-03-22T01:26:53;100252.63;;;8.71;100.00
64292;BME280;50628;51.008;13.658;2024-03-22T01:31:55;100237.59;;;8.76;100.00
64292;BME280;50628;51.008;13.658;2024-03-22T01:36:58;100243.53;;;8.78;100.00
64292;BME280;50628;51.008;13.658;2024-03-22T01:42:00;100239.16;;;8.78;100.00
64292;BME280;50628;51.008;13.658;2024-03-22T01:47:02;100232.81;;;8.70;100.00
64292;BME280;50628;51.008;13.658;2024-03-22T01:52:06;100219.72;;;8.71;100.00
64292;BME280;50628;51.008;13.658;2024-03-22T01:57:08;100214.66;;;8.70;100.00
64292;BME280;50628;51.008;13.658;2024-03-22T02:02:10;100206.50;;;8.61;100.00
64292;BME280;50628;51.008;13.658;2024-03-22T02:07:14;100211.53;;;8.64;100.00
64292;BME280;50628;51.008;13.658;2024-03-22T02:12:16;100201.44;;;8.60;100.00
64292;BME280;50628;51.008;13.658;2024-03-22T02:17:18;100196.25;;;8.60;100.00
64292;BME280;50628;51.008;13.658;2024-03-22T02:22:21;100182.03;;;8.38;100.00
64292;BME280;50628;51.008;13.658;2024-03-22T02:27:24;100178.06;;;8.33;100.00
64292;BME280;50628;51.008;13.658;2024-03-22T02:32:26;100167.91;;;8.30;100.00
64292;BME280;50628;51.008;13.658;2024-03-22T02:37:28;100160.34;;;8.27;100.00
64292;BME280;50628;51.008;13.658;2024-03-22T02:42:31;100158.28;;;8.32;100.00
64292;BME280;50628;51.008;13.658;2024-03-22T02:47:33;100155.22;;;8.25;100.00
64292;BME280;50628;51.008;13.658;2024-03-22T02:52:35;100158.41;;;8.16;100.00
64292;BME280;50628;51.008;13.658;2024-03-22T02:57:38;100140.16;;;8.17;100.00
64292;BME280;50628;51.008;13.658;2024-03-22T03:02:40;100138.44;;;8.03;100.00
64292;BME280;50628;51.008;13.658;2024-03-22T03:07:42;100144.91;;;8.11;100.00
64292;BME280;50628;51.008;13.658;2024-03-22T03:12:45;100137.38;;;8.20;100.00
64292;BME280;50628;51.008;13.658;2024-03-22T03:17:47;100139.97;;;8.20;100.00
64292;BME280;50628;51.008;13.658;2024-03-22T03:22:49;100138.72;;;8.26;100.00
64292;BME280;50628;51.008;13.658;2024-03-22T03:27:52;100127.13;;;8.19;100.00
64292;BME280;50628;51.008;13.658;2024-03-22T03:32:54;100119.44;;;8.30;100.00
64292;BME280;50628;51.008;13.658;2024-03-22T03:37:56;100112.78;;;8.26;100.00
64292;BME280;50628;51.008;13.658;2024-03-22T03:42:59;100115.75;;;8.34;100.00
64292;BME280;50628;51.008;13.658;2024-03-22T03:48:01;100107.22;;;8.32;100.00
64292;BME280;50628;51.008;13.658;2024-03-22T03:53:03;100105.00;;;8.26;100.00
64292;BME280;50628;51.008;13.658;2024-03-22T03:58:06;100098.69;;;8.17;100.00
64292;BME280;50628;51.008;13.658;2024-03-22T04:03:08;100106.16;;;8.22;100.00
64292;BME280;50628;51.008;13.658;2024-03-22T04:08:10;100093.94;;;8.24;100.00
64292;BME280;50628;51.008;13.658;2024-03-22T04:13:13;100105.00;;;8.26;100.00
64292;BME280;50628;51.008;13.658;2024-03-22T04:18:15;100079.09;;;8.26;100.00
64292;BME280;50628;51.008;13.658;2024-03-22T04:23:17;100090.06;;;8.17;100.00
64292;BME280;50628;51.008;13.658;2024-03-22T04:28:20;100077.53;;;8.23;100.00
64292;BME280;50628;51.008;13.658;2024-03-22T04:33:22;100068.09;;;8.22;100.00
64292;BME280;50628;51.008;13.658;2024-03-22T04:38:24;100067.03;;;8.12;100.00
64292;BME280;50628;51.008;13.658;2024-03-22T04:43:28;100060.91;;;8.13;100.00
64292;BME280;50628;51.008;13.658;2024-03-22T04:48:29;100062.47;;;8.16;100.00
64292;BME280;50628;51.008;13.658;2024-03-22T04:53:31;100053.94;;;8.14;100.00
64292;BME280;50628;51.008;13.658;2024-03-22T04:58:35;100055.09;;;8.10;100.00
64292;BME280;50628;51.008;13.658;2024-03-22T05:03:36;100046.69;;;8.06;100.00
64292;BME280;50628;51.008;13.658;2024-03-22T05:08:38;100047.31;;;8.10;100.00
64292;BME280;50628;51.008;13.658;2024-03-22T05:13:43;100054.78;;;8.01;100.00
64292;BME280;50628;51.008;13.658;2024-03-22T05:18:45;100050.31;;;8.03;100.00
64292;BME280;50628;51.008;13.658;2024-03-22T05:23:46;100037.78;;;8.10;100.00
64292;BME280;50628;51.008;13.658;2024-03-22T05:28:50;100042.66;;;8.15;100.00
64292;BME280;50628;51.008;13.658;2024-03-22T05:33:51;100028.25;;;8.23;100.00
64292;BME280;50628;51.008;13.658;2024-03-22T05:38:53;100012.59;;;8.25;100.00
64292;BME280;50628;51.008;13.658;2024-03-22T05:43:56;100008.25;;;8.38;100.00
64292;BME280;50628;51.008;13.658;2024-03-22T05:48:58;100011.47;;;8.29;100.00
64292;BME280;50628;51.008;13.658;2024-03-22T05:54:00;100001.81;;;8.31;100.00
64292;BME280;50628;51.008;13.658;2024-03-22T05:59:04;100015.97;;;8.40;100.00
64292;BME280;50628;51.008;13.658;2024-03-22T06:04:06;99997.69;;;8.41;100.00
64292;BME280;50628;51.008;13.658;2024-03-22T06:09:08;99991.47;;;8.44;100.00
64292;BME280;50628;51.008;13.658;2024-03-22T06:14:13;99998.53;;;8.55;100.00
64292;BME280;50628;51.008;13.658;2024-03-22T06:19:15;99984.75;;;8.54;100.00
64292;BME280;50628;51.008;13.658;2024-03-22T06:24:16;99986.59;;;8.65;100.00
64292;BME280;50628;51.008;13.658;2024-03-22T06:29:20;99985.44;;;8.69;100.00
64292;BME280;50628;51.008;13.658;2024-03-22T06:34:22;99980.66;;;8.76;100.00
64292;BME280;50628;51.008;13.658;2024-03-22T06:39:23;99977.31;;;8.86;100.00
64292;BME280;50628;51.008;13.658;2024-03-22T06:44:27;99981.94;;;9.07;100.00
64292;BME280;50628;51.008;13.658;2024-03-22T06:49:29;99979.53;;;9.17;100.00
64292;BME280;50628;51.008;13.658;2024-03-22T06:54:30;99963.41;;;9.24;100.00
64292;BME280;50628;51.008;13.658;2024-03-22T06:59:34;99934.06;;;9.35;100.00
64292;BME280;50628;51.008;13.658;2024-03-22T07:04:35;99931.66;;;9.56;100.00
64292;BME280;50628;51.008;13.658;2024-03-22T07:09:37;99942.56;;;9.61;100.00
64292;BME280;50628;51.008;13.658;2024-03-22T07:14:41;99934.13;;;9.82;100.00
64292;BME280;50628;51.008;13.658;2024-03-22T07:19:43;99937.00;;;10.01;100.00
64292;BME280;50628;51.008;13.658;2024-03-22T07:24:45;99932.28;;;10.06;100.00
64292;BME280;50628;51.008;13.658;2024-03-22T07:29:49;99926.88;;;10.21;100.00
64292;BME280;50628;51.008;13.658;2024-03-22T07:34:51;99932.34;;;10.29;100.00
64292;BME280;50628;51.008;13.658;2024-03-22T07:39:52;99929.63;;;10.42;100.00
64292;BME280;50628;51.008;13.658;2024-03-22T07:44:56;99926.09;;;10.54;100.00
64292;BME280;50628;51.008;13.658;2024-03-22T07:49:57;99917.66;;;10.84;100.00
64292;BME280;50628;51.008;13.658;2024-03-22T07:54:59;99918.34;;;10.97;100.00
64292;BME280;50628;51.008;13.658;2024-03-22T08:00:05;99899.38;;;11.07;100.00
64292;BME280;50628;51.008;13.658;2024-03-22T08:05:12;99904.50;;;11.29;100.00
64292;BME280;50628;51.008;13.658;2024-03-22T08:10:14;99906.06;;;11.53;100.00
64292;BME280;50628;51.008;13.658;2024-03-22T08:15:18;99889.78;;;11.60;100.00
64292;BME280;50628;51.008;13.658;2024-03-22T08:20:19;99899.13;;;11.63;100.00
64292;BME280;50628;51.008;13.658;2024-03-22T08:25:22;99887.88;;;11.83;100.00
64292;BME280;50628;51.008;13.658;2024-03-22T08:30:26;99882.66;;;11.83;100.00
64292;BME280;50628;51.008;13.658;2024-03-22T08:35:28;99878.50;;;11.92;100.00
64292;BME280;50628;51.008;13.658;2024-03-22T08:40:30;99868.63;;;11.96;100.00
64292;BME280;50628;51.008;13.658;2024-03-22T08:45:33;99865.41;;;12.13;100.00
64292;BME280;50628;51.008;13.658;2024-03-22T08:50:35;99856.72;;;12.33;100.00
64292;BME280;50628;51.008;13.658;2024-03-22T08:55:36;99857.56;;;12.44;100.00
64292;BME280;50628;51.008;13.658;2024-03-22T09:00:40;99852.13;;;12.66;100.00
64292;BME280;50628;51.008;13.658;2024-03-22T09:05:42;99856.56;;;12.75;100.00
64292;BME280;50628;51.008;13.658;2024-03-22T09:10:44;99842.53;;;12.86;100.00
64292;BME280;50628;51.008;13.658;2024-03-22T09:15:47;99839.94;;;12.86;100.00
64292;BME280;50628;51.008;13.658;2024-03-22T09:20:49;99826.47;;;13.10;100.00
64292;BME280;50628;51.008;13.658;2024-03-22T09:25:51;99825.38;;;13.32;100.00
64292;BME280;50628;51.008;13.658;2024-03-22T09:30:54;99833.06;;;13.53;100.00
64292;BME280;50628;51.008;13.658;2024-03-22T09:35:57;99817.06;;;13.66;100.00
64292;BME280;50628;51.008;13.658;2024-03-22T09:40:59;99811.94;;;13.84;100.00
64292;BME280;50628;51.008;13.658;2024-03-22T09:46:02;99817.94;;;13.94;100.00
64292;BME280;50628;51.008;13.658;2024-03-22T09:51:04;99802.25;;;13.94;100.00
64292;BME280;50628;51.008;13.658;2024-03-22T09:56:07;99801.03;;;13.89;100.00
64292;BME280;50628;51.008;13.658;2024-03-22T10:01:11;99796.22;;;14.21;100.00
64292;BME280;50628;51.008;13.658;2024-03-22T10:06:13;99798.03;;;14.39;100.00
64292;BME280;50628;51.008;13.658;2024-03-22T10:11:15;99794.72;;;14.19;100.00
64292;BME280;50628;51.008;13.658;2024-03-22T10:16:18;99786.78;;;14.28;100.00
64292;BME280;50628;51.008;13.658;2024-03-22T10:21:20;99773.41;;;14.32;100.00
64292;BME280;50628;51.008;13.658;2024-03-22T10:26:22;99765.59;;;14.49;100.00
64292;BME280;50628;51.008;13.658;2024-03-22T10:31:25;99771.38;;;14.89;100.00
64292;BME280;50628;51.008;13.658;2024-03-22T10:36:29;99751.41;;;15.14;100.00
64292;BME280;50628;51.008;13.658;2024-03-22T10:41:31;99735.63;;;15.50;100.00
64292;BME280;50628;51.008;13.658;2024-03-22T10:46:35;99736.22;;;15.44;100.00
64292;BME280;50628;51.008;13.658;2024-03-22T10:51:37;99747.09;;;15.57;100.00
64292;BME280;50628;51.008;13.658;2024-03-22T10:56:39;99737.91;;;15.27;100.00
64292;BME280;50628;51.008;13.658;2024-03-22T11:01:46;99727.41;;;15.27;100.00
64292;BME280;50628;51.008;13.658;2024-03-22T11:06:48;99716.56;;;15.22;100.00
64292;BME280;50628;51.008;13.658;2024-03-22T11:11:52;99703.72;;;15.36;100.00
64292;BME280;50628;51.008;13.658;2024-03-22T11:16:56;99683.88;;;15.34;100.00
64292;BME280;50628;51.008;13.658;2024-03-22T11:21:57;99680.66;;;15.48;100.00
64292;BME280;50628;51.008;13.658;2024-03-22T11:26:59;99686.13;;;15.55;100.00
64292;BME280;50628;51.008;13.658;2024-03-22T11:32:03;99675.78;;;15.53;100.00
64292;BME280;50628;51.008;13.658;2024-03-22T11:37:05;99667.13;;;15.61;100.00
64292;BME280;50628;51.008;13.658;2024-03-22T11:42:11;99667.25;;;15.86;100.00
64292;BME280;50628;51.008;13.658;2024-03-22T11:47:15;99642.31;;;15.90;100.00
64292;BME280;50628;51.008;13.658;2024-03-22T11:52:17;99640.19;;;15.85;100.00
64292;BME280;50628;51.008;13.658;2024-03-22T11:57:20;99634.16;;;15.67;100.00
64292;BME280;50628;51.008;13.658;2024-03-22T12:02:23;99624.31;;;16.03;100.00
64292;BME280;50628;51.008;13.658;2024-03-22T12:07:25;99620.88;;;16.19;100.00
64292;BME280;50628;51.008;13.658;2024-03-22T12:12:28;99615.56;;;15.94;100.00
64292;BME280;50628;51.008;13.658;2024-03-22T12:17:31;99604.97;;;16.20;100.00
64292;BME280;50628;51.008;13.658;2024-03-22T12:22:34;99593.94;;;16.17;100.00
64292;BME280;50628;51.008;13.658;2024-03-22T12:27:35;99599.06;;;16.18;100.00
64292;BME280;50628;51.008;13.658;2024-03-22T12:32:39;99595.09;;;16.22;100.00
64292;BME280;50628;51.008;13.658;2024-03-22T12:37:41;99577.53;;;16.15;100.00
64292;BME280;50628;51.008;13.658;2024-03-22T12:42:43;99587.22;;;16.06;100.00
64292;BME280;50628;51.008;13.658;2024-03-22T12:47:46;99577.34;;;16.00;100.00
64292;BME280;50628;51.008;13.658;2024-03-22T12:52:48;99578.34;;;15.99;100.00
64292;BME280;50628;51.008;13.658;2024-03-22T12:57:52;99565.03;;;15.76;100.00
64292;BME280;50628;51.008;13.658;2024-03-22T13:02:55;99551.44;;;15.89;100.00
64292;BME280;50628;51.008;13.658;2024-03-22T13:07:57;99545.53;;;15.70;100.00
64292;BME280;50628;51.008;13.658;2024-03-22T13:12:59;99540.19;;;15.62;100.00
64292;BME280;50628;51.008;13.658;2024-03-22T13:18:02;99525.13;;;15.64;100.00
64292;BME280;50628;51.008;13.658;2024-03-22T13:23:05;99525.78;;;15.50;100.00
64292;BME280;50628;51.008;13.658;2024-03-22T13:28:08;99520.00;;;15.38;100.00
64292;BME280;50628;51.008;13.658;2024-03-22T13:33:11;99513.13;;;15.45;100.00
64292;BME280;50628;51.008;13.658;2024-03-22T13:38:13;99492.31;;;15.44;100.00
64292;BME280;50628;51.008;13.658;2024-03-22T13:43:16;99488.91;;;15.68;100.00
64292;BME280;50628;51.008;13.658;2024-03-22T13:48:20;99489.38;;;15.63;100.00
64292;BME280;50628;51.008;13.658;2024-03-22T13:53:24;99480.84;;;15.61;100.00
64292;BME280;50628;51.008;13.658;2024-03-22T13:58:26;99478.13;;;15.71;100.00
64292;BME280;50628;51.008;13.658;2024-03-22T14:03:30;99463.84;;;15.73;100.00
64292;BME280;50628;51.008;13.658;2024-03-22T14:08:32;99455.97;;;15.73;100.00
64292;BME280;50628;51.008;13.658;2024-03-22T14:13:34;99449.41;;;15.86;100.00
64292;BME280;50628;51.008;13.658;2024-03-22T14:18:37;99434.47;;;15.94;100.00
64292;BME280;50628;51.008;13.658;2024-03-22T14:23:39;99435.16;;;15.80;100.00
64292;BME280;50628;51.008;13.658;2024-03-22T14:28:41;99423.00;;;15.79;100.00
64292;BME280;50628;51.008;13.658;2024-03-22T14:33:45;99416.13;;;15.78;100.00
64292;BME280;50628;51.008;13.658;2024-03-22T14:38:47;99414.47;;;15.77;100.00
64292;BME280;50628;51.008;13.658;2024-03-22T14:43:49;99423.16;;;15.69;100.00
64292;BME280;50628;51.008;13.658;2024-03-22T14:48:55;99405.25;;;15.56;100.00
64292;BME280;50628;51.008;13.658;2024-03-22T14:53:57;99397.56;;;15.55;100.00
64292;BME280;50628;51.008;13.658;2024-03-22T14:58:58;99403.63;;;15.39;100.00
64292;BME280;50628;51.008;13.658;2024-03-22T15:04:03;99397.56;;;15.22;100.00
64292;BME280;50628;51.008;13.658;2024-03-22T15:09:06;99385.41;;;15.13;100.00
64292;BME280;50628;51.008;13.658;2024-03-22T15:14:11;99381.78;;;15.14;100.00
64292;BME280;50628;51.008;13.658;2024-03-22T15:19:15;99390.66;;;15.13;100.00
64292;BME280;50628;51.008;13.658;2024-03-22T15:24:17;99376.88;;;15.03;100.00
64292;BME280;50628;51.008;13.658;2024-03-22T15:29:19;99376.06;;;15.02;100.00
64292;BME280;50628;51.008;13.658;2024-03-22T15:34:22;99363.25;;;14.99;100.00
64292;BME280;50628;51.008;13.658;2024-03-22T15:39:25;99366.06;;;14.98;100.00
64292;BME280;50628;51.008;13.658;2024-03-22T15:44:27;99361.78;;;14.97;100.00
64292;BME280;50628;51.008;13.658;2024-03-22T15:49:30;99363.91;;;15.01;100.00
64292;BME280;50628;51.008;13.658;2024-03-22T15:54:32;99361.16;;;15.03;100.00
64292;BME280;50628;51.008;13.658;2024-03-22T15:59:34;99356.72;;;15.11;100.00
64292;BME280;50628;51.008;13.658;2024-03-22T16:04:37;99354.78;;;15.13;100.00
64292;BME280;50628;51.008;13.658;2024-03-22T16:09:39;99343.78;;;15.02;100.00
64292;BME280;50628;51.008;13.658;2024-03-22T16:14:41;99347.06;;;14.96;100.00
64292;BME280;50628;51.008;13.658;2024-03-22T16:19:45;99341.94;;;14.86;100.00
64292;BME280;50628;51.008;13.658;2024-03-22T16:24:46;99327.72;;;14.88;100.00
64292;BME280;50628;51.008;13.658;2024-03-22T16:29:48;99326.22;;;14.86;100.00
64292;BME280;50628;51.008;13.658;2024-03-22T16:34:52;99331.59;;;14.76;100.00
64292;BME280;50628;51.008;13.658;2024-03-22T16:39:53;99322.13;;;14.83;100.00
64292;BME280;50628;51.008;13.658;2024-03-22T16:44:55;99322.13;;;14.67;100.00
64292;BME280;50628;51.008;13.658;2024-03-22T16:49:58;99313.44;;;14.75;100.00
64292;BME280;50628;51.008;13.658;2024-03-22T16:55:00;99308.22;;;14.83;100.00
64292;BME280;50628;51.008;13.658;2024-03-22T17:00:03;99309.50;;;14.79;100.00
64292;BME280;50628;51.008;13.658;2024-03-22T17:05:08;99317.03;;;14.74;100.00
64292;BME280;50628;51.008;13.658;2024-03-22T17:10:10;99320.97;;;14.69;100.00
64292;BME280;50628;51.008;13.658;2024-03-22T17:15:12;99320.13;;;14.69;100.00
64292;BME280;50628;51.008;13.658;2024-03-22T17:20:16;99326.69;;;14.65;100.00
64292;BME280;50628;51.008;13.658;2024-03-22T17:25:18;99321.25;;;14.58;100.00
64292;BME280;50628;51.008;13.658;2024-03-22T17:30:20;99333.63;;;14.48;100.00
64292;BME280;50628;51.008;13.658;2024-03-22T17:35:23;99332.81;;;14.47;100.00
64292;BME280;50628;51.008;13.658;2024-03-22T17:40:25;99330.47;;;14.36;100.00
64292;BME280;50628;51.008;13.658;2024-03-22T17:45:27;99321.66;;;14.37;100.00
64292;BME280;50628;51.008;13.658;2024-03-22T17:50:30;99315.53;;;14.20;100.00
64292;BME280;50628;51.008;13.658;2024-03-22T17:55:32;99313.25;;;14.17;100.00
64292;BME280;50628;51.008;13.658;2024-03-22T18:00:34;99313.69;;;14.13;100.00
64292;BME280;50628;51.008;13.658;2024-03-22T18:05:37;99307.81;;;14.11;100.00
64292;BME280;50628;51.008;13.658;2024-03-22T18:10:39;99305.81;;;14.04;100.00
64292;BME280;50628;51.008;13.658;2024-03-22T18:15:41;99304.94;;;13.96;100.00
64292;BME280;50628;51.008;13.658;2024-03-22T18:20:44;99287.28;;;13.90;100.00
64292;BME280;50628;51.008;13.658;2024-03-22T18:25:49;99286.56;;;13.79;100.00
64292;BME280;50628;51.008;13.658;2024-03-22T18:30:51;99290.56;;;13.66;100.00
64292;BME280;50628;51.008;13.658;2024-03-22T18:35:54;99284.47;;;13.57;100.00
64292;BME280;50628;51.008;13.658;2024-03-22T18:40:56;99278.25;;;13.58;100.00
64292;BME280;50628;51.008;13.658;2024-03-22T18:45:59;99271.53;;;13.55;100.00
64292;BME280;50628;51.008;13.658;2024-03-22T18:51:03;99262.03;;;13.46;100.00
64292;BME280;50628;51.008;13.658;2024-03-22T18:56:06;99260.22;;;13.47;100.00
64292;BME280;50628;51.008;13.658;2024-03-22T19:01:09;99252.25;;;13.30;100.00
64292;BME280;50628;51.008;13.658;2024-03-22T19:06:13;99252.28;;;13.12;100.00
64292;BME280;50628;51.008;13.658;2024-03-22T19:11:14;99243.94;;;13.09;100.00
64292;BME280;50628;51.008;13.658;2024-03-22T19:16:16;99229.97;;;13.00;100.00
64292;BME280;50628;51.008;13.658;2024-03-22T19:21:20;99217.28;;;13.05;100.00
64292;BME280;50628;51.008;13.658;2024-03-22T19:26:22;99179.22;;;13.03;100.00
64292;BME280;50628;51.008;13.658;2024-03-22T19:31:24;99185.88;;;12.97;100.00
64292;BME280;50628;51.008;13.658;2024-03-22T19:36:27;99181.72;;;13.12;100.00
64292;BME280;50628;51.008;13.658;2024-03-22T19:41:29;99181.06;;;12.66;100.00
64292;BME280;50628;51.008;13.658;2024-03-22T19:46:31;99203.59;;;12.31;100.00
64292;BME280;50628;51.008;13.658;2024-03-22T19:51:34;99208.38;;;12.36;100.00
64292;BME280;50628;51.008;13.658;2024-03-22T19:56:36;99208.81;;;12.49;100.00
64292;BME280;50628;51.008;13.658;2024-03-22T20:01:38;99206.44;;;12.38;100.00
64292;BME280;50628;51.008;13.658;2024-03-22T20:06:41;99195.84;;;12.40;100.00
64292;BME280;50628;51.008;13.658;2024-03-22T20:11:45;99186.06;;;12.42;100.00
64292;BME280;50628;51.008;13.658;2024-03-22T20:16:47;99181.84;;;12.41;100.00
64292;BME280;50628;51.008;13.658;2024-03-22T20:21:50;99189.22;;;12.27;100.00
64292;BME280;50628;51.008;13.658;2024-03-22T20:26:52;99185.47;;;12.12;100.00
64292;BME280;50628;51.008;13.658;2024-03-22T20:31:54;99177.53;;;12.04;100.00
64292;BME280;50628;51.008;13.658;2024-03-22T20:36:59;99185.66;;;12.01;100.00
